createdAt,value
2022-12-04T00:00:13.916Z,4.92
2022-12-04T00:02:45.957Z,4.91
2022-12-04T00:05:18.025Z,4.86
2022-12-04T00:07:50.920Z,4.93
2022-12-04T00:10:22.941Z,4.92
2022-12-04T00:12:54.893Z,4.93
2022-12-04T00:15:27.441Z,4.91
2022-12-04T00:17:59.467Z,4.95
2022-12-04T00:20:31.335Z,5.04
2022-12-04T00:23:03.273Z,5.09
2022-12-04T00:25:40.781Z,5.12
2022-12-04T00:28:13.240Z,4.99
2022-12-04T00:30:46.163Z,5.02
2022-12-04T00:33:18.055Z,4.83
2022-12-04T00:36:01.922Z,4.99
2022-12-04T00:38:34.528Z,4.98
2022-12-04T00:41:09.952Z,4.95
2022-12-04T00:43:43.045Z,4.97
2022-12-04T00:46:16.354Z,4.98
2022-12-04T00:48:48.502Z,4.98
2022-12-04T00:51:25.191Z,4.98
2022-12-04T00:53:57.252Z,4.98
2022-12-04T00:56:30.052Z,4.98
2022-12-04T00:59:02.149Z,4.98
2022-12-04T01:01:34.372Z,4.96
2022-12-04T01:04:06.451Z,4.91
2022-12-04T01:06:38.414Z,4.70
2022-12-04T01:09:10.329Z,4.95
2022-12-04T01:11:42.307Z,4.99
2022-12-04T01:14:14.350Z,4.94
2022-12-04T01:16:47.533Z,4.96
2022-12-04T01:19:19.552Z,4.98
2022-12-04T01:21:51.534Z,4.97
2022-12-04T01:24:23.445Z,4.95
2022-12-04T01:26:55.388Z,4.99
2022-12-04T01:29:27.372Z,4.97
2022-12-04T01:31:59.532Z,5.01
2022-12-04T01:34:31.476Z,5.05
2022-12-04T01:37:03.498Z,4.92
2022-12-04T01:39:38.779Z,5.06
2022-12-04T01:42:15.735Z,4.93
2022-12-04T01:45:31.386Z,4.88
2022-12-04T01:48:17.905Z,4.97
2022-12-04T01:50:58.283Z,5.05
2022-12-04T01:53:31.610Z,4.87
2022-12-04T01:56:04.864Z,5.09
2022-12-04T01:58:44.958Z,5.08
2022-12-04T02:01:17.021Z,5.02
2022-12-04T02:03:50.258Z,4.98
2022-12-04T02:06:22.228Z,4.92
2022-12-04T02:08:54.467Z,5.05
2022-12-04T02:11:51.946Z,4.99
2022-12-04T02:14:57.106Z,4.98
2022-12-04T02:17:42.425Z,4.99
2022-12-04T02:21:06.223Z,4.88
2022-12-04T02:24:06.904Z,4.91
2022-12-04T02:27:15.004Z,4.88
2022-12-04T02:30:15.992Z,4.85
2022-12-04T02:32:57.267Z,4.87
2022-12-04T02:35:35.822Z,4.85
2022-12-04T02:38:23.896Z,4.90
2022-12-04T02:41:27.615Z,4.89
2022-12-04T02:44:10.339Z,4.92
2022-12-04T02:46:54.148Z,4.95
2022-12-04T02:49:38.015Z,4.93
2022-12-04T02:52:17.245Z,4.92
2022-12-04T02:55:04.042Z,4.85
2022-12-04T02:57:45.439Z,4.87
2022-12-04T03:00:19.033Z,4.87
2022-12-04T03:03:11.153Z,4.83
2022-12-04T03:06:05.959Z,4.79
2022-12-04T03:08:46.541Z,4.83
2022-12-04T03:11:18.950Z,4.82
2022-12-04T03:14:21.562Z,4.74
2022-12-04T03:17:03.810Z,4.82
2022-12-04T03:19:45.812Z,4.81
2022-12-04T03:22:22.174Z,4.77
2022-12-04T03:24:57.116Z,4.90
2022-12-04T03:27:39.559Z,4.91
2022-12-04T03:30:19.298Z,4.89
2022-12-04T03:33:13.664Z,4.71
2022-12-04T03:36:13.742Z,4.81
2022-12-04T03:39:03.550Z,4.84
2022-12-04T03:42:19.835Z,4.82
2022-12-04T03:45:44.160Z,4.75
2022-12-04T03:48:38.748Z,4.69
2022-12-04T03:51:35.285Z,4.70
2022-12-04T03:54:30.507Z,4.79
2022-12-04T03:57:24.477Z,4.73
2022-12-04T04:00:06.533Z,4.85
2022-12-04T04:02:46.854Z,4.77
2022-12-04T04:05:21.024Z,4.79
2022-12-04T04:08:25.041Z,4.59
2022-12-04T04:11:15.421Z,4.79
2022-12-04T04:14:23.001Z,4.79
2022-12-04T04:17:26.829Z,4.74
2022-12-04T04:20:44.320Z,4.71
2022-12-04T04:23:38.847Z,4.82
2022-12-04T04:26:14.223Z,4.62
2022-12-04T04:28:46.581Z,4.79
2022-12-04T04:31:37.117Z,4.80
2022-12-04T04:34:19.938Z,4.74
2022-12-04T04:37:21.033Z,4.82
2022-12-04T04:39:58.464Z,4.81
2022-12-04T04:42:51.683Z,4.82
2022-12-04T04:45:35.637Z,4.77
2022-12-04T04:48:23.870Z,4.75
2022-12-04T04:50:57.762Z,4.62
2022-12-04T04:53:46.940Z,4.78
2022-12-04T04:56:21.097Z,4.81
2022-12-04T04:58:53.066Z,4.78
2022-12-04T05:01:28.803Z,4.87
2022-12-04T05:04:03.124Z,4.90
2022-12-04T05:06:35.202Z,4.96
2022-12-04T05:09:07.262Z,4.98
2022-12-04T05:11:39.200Z,4.95
2022-12-04T05:14:11.144Z,4.94
2022-12-04T05:16:43.051Z,4.94
2022-12-04T05:19:33.420Z,4.93
2022-12-04T05:22:05.320Z,4.92
2022-12-04T05:24:37.208Z,4.90
2022-12-04T05:27:09.139Z,4.80
2022-12-04T05:29:41.184Z,4.89
2022-12-04T05:32:13.524Z,4.83
2022-12-04T05:34:49.198Z,4.75
2022-12-04T05:37:22.112Z,4.81
2022-12-04T05:39:54.557Z,4.80
2022-12-04T05:42:26.802Z,4.83
2022-12-04T05:44:58.855Z,4.85
2022-12-04T05:47:30.782Z,4.83
2022-12-04T05:50:02.875Z,4.85
2022-12-04T05:52:35.001Z,4.78
2022-12-04T05:55:07.366Z,4.85
2022-12-04T05:57:39.333Z,4.76
2022-12-04T06:00:12.562Z,4.81
2022-12-04T06:02:44.620Z,4.80
2022-12-04T06:05:16.834Z,4.74
2022-12-04T06:07:48.762Z,4.80
2022-12-04T06:10:20.722Z,4.93
2022-12-04T06:12:57.661Z,4.90
2022-12-04T06:15:29.603Z,4.92
2022-12-04T06:18:01.601Z,4.89
2022-12-04T06:20:33.848Z,4.86
2022-12-04T06:23:05.856Z,4.80
2022-12-04T06:25:37.758Z,4.84
2022-12-04T06:28:09.743Z,4.88
2022-12-04T06:30:41.652Z,4.90
2022-12-04T06:33:13.648Z,4.84
2022-12-04T06:35:45.567Z,4.94
2022-12-04T06:38:17.552Z,4.96
2022-12-04T06:40:49.425Z,4.97
2022-12-04T06:43:21.773Z,4.97
2022-12-04T06:46:07.976Z,4.95
2022-12-04T06:48:41.078Z,4.90
2022-12-04T06:51:40.841Z,4.94
2022-12-04T06:54:13.176Z,5.00
2022-12-04T06:56:45.167Z,5.04
2022-12-04T06:59:17.424Z,4.99
2022-12-04T07:01:49.479Z,4.90
2022-12-04T07:04:21.430Z,4.95
2022-12-04T07:06:53.421Z,5.03
2022-12-04T07:09:25.335Z,5.02
2022-12-04T07:11:57.312Z,4.87
2022-12-04T07:14:29.423Z,4.99
2022-12-04T07:17:01.482Z,4.93
2022-12-04T07:19:33.443Z,4.96
2022-12-04T07:22:06.465Z,5.01
2022-12-04T07:24:38.983Z,5.04
2022-12-04T07:27:10.903Z,5.03
2022-12-04T07:29:43.583Z,5.00
2022-12-04T07:32:15.542Z,5.02
2022-12-04T07:34:47.537Z,4.97
2022-12-04T07:37:19.493Z,4.91
2022-12-04T07:39:53.118Z,4.92
2022-12-04T07:42:25.246Z,4.92
2022-12-04T07:44:57.162Z,4.82
2022-12-04T07:47:29.100Z,4.98
2022-12-04T07:50:01.089Z,4.97
2022-12-04T07:52:38.059Z,4.87
2022-12-04T07:55:10.160Z,4.94
2022-12-04T07:57:42.589Z,4.94
2022-12-04T08:00:15.912Z,4.96
2022-12-04T08:02:47.843Z,4.84
2022-12-04T08:05:20.167Z,5.02
2022-12-04T08:07:52.868Z,5.02
2022-12-04T08:10:24.813Z,5.01
2022-12-04T08:12:56.736Z,4.91
2022-12-04T08:15:28.705Z,4.97
2022-12-04T08:18:00.704Z,4.97
2022-12-04T08:20:32.606Z,5.03
2022-12-04T08:23:04.563Z,4.96
2022-12-04T08:25:40.414Z,5.05
2022-12-04T08:28:12.485Z,4.97
2022-12-04T08:30:44.496Z,5.10
2022-12-04T08:33:16.475Z,5.13
2022-12-04T08:35:48.414Z,5.10
2022-12-04T08:38:20.332Z,5.15
2022-12-04T08:40:52.316Z,5.13
2022-12-04T08:43:24.300Z,5.22
2022-12-04T08:46:03.250Z,5.04
2022-12-04T08:48:35.686Z,5.11
2022-12-04T08:51:15.519Z,5.19
2022-12-04T08:53:48.130Z,5.20
2022-12-04T08:56:20.194Z,5.11
2022-12-04T08:58:52.617Z,5.16
2022-12-04T09:01:25.931Z,5.21
2022-12-04T09:03:58.939Z,5.20
2022-12-04T09:06:31.118Z,5.20
2022-12-04T09:09:03.584Z,5.17
2022-12-04T09:11:35.613Z,5.16
2022-12-04T09:14:07.722Z,5.12
2022-12-04T09:16:39.695Z,5.09
2022-12-04T09:19:11.589Z,5.09
2022-12-04T09:21:43.590Z,5.17
2022-12-04T09:24:15.667Z,5.18
2022-12-04T09:26:47.595Z,5.17
2022-12-04T09:29:19.485Z,5.10
2022-12-04T09:31:51.404Z,5.18
2022-12-04T09:34:23.321Z,5.21
2022-12-04T09:36:55.282Z,5.30
2022-12-04T09:39:27.543Z,5.28
2022-12-04T09:42:20.727Z,5.26
2022-12-04T09:45:19.339Z,5.17
2022-12-04T09:47:59.270Z,5.15
2022-12-04T09:50:46.928Z,5.15
2022-12-04T09:53:24.793Z,5.16
2022-12-04T09:56:13.886Z,5.15
2022-12-04T09:59:00.298Z,5.18
2022-12-04T10:02:11.450Z,5.15
2022-12-04T10:04:43.663Z,5.12
2022-12-04T10:08:02.697Z,5.15
2022-12-04T10:11:04.624Z,5.15
2022-12-04T10:14:03.386Z,5.11
2022-12-04T10:16:56.759Z,5.15
2022-12-04T10:20:22.839Z,5.08
2022-12-04T10:23:44.093Z,5.00
2022-12-04T10:26:18.874Z,4.98
2022-12-04T10:29:20.037Z,4.76
2022-12-04T10:31:56.956Z,5.04
2022-12-04T10:34:31.862Z,5.02
2022-12-04T10:37:13.646Z,4.95
2022-12-04T10:40:28.290Z,4.94
2022-12-04T10:43:24.208Z,5.01
2022-12-04T10:45:56.538Z,5.02
2022-12-04T10:48:39.847Z,5.09
2022-12-04T10:51:18.138Z,5.12
2022-12-04T10:53:51.879Z,5.07
2022-12-04T10:56:26.308Z,4.99
2022-12-04T10:59:05.966Z,4.98
2022-12-04T11:01:38.186Z,5.02
2022-12-04T11:04:28.139Z,4.96
2022-12-04T11:07:18.730Z,4.98
2022-12-04T11:10:20.714Z,5.01
2022-12-04T11:12:59.582Z,5.03
2022-12-04T11:15:36.331Z,4.99
2022-12-04T11:18:29.584Z,5.00
2022-12-04T11:21:03.792Z,5.03
2022-12-04T11:23:56.148Z,5.05
2022-12-04T11:26:38.845Z,4.99
2022-12-04T11:29:17.136Z,4.98
2022-12-04T11:31:55.682Z,5.14
2022-12-04T11:34:38.950Z,5.17
2022-12-04T11:37:24.970Z,5.15
2022-12-04T11:39:57.895Z,5.08
2022-12-04T11:42:32.091Z,4.99
2022-12-04T11:45:23.164Z,5.11
2022-12-04T11:48:02.267Z,5.09
2022-12-04T11:51:02.901Z,5.03
2022-12-04T11:54:22.229Z,4.98
2022-12-04T11:57:05.132Z,4.95
2022-12-04T12:00:18.604Z,4.97
2022-12-04T12:03:30.875Z,4.92
2022-12-04T12:06:51.203Z,4.92
2022-12-04T12:09:38.946Z,4.84
2022-12-04T12:12:49.214Z,4.92
2022-12-04T12:15:31.422Z,4.98
2022-12-04T12:18:46.326Z,4.95
2022-12-04T12:21:26.989Z,5.35
2022-12-04T12:24:41.203Z,4.98
2022-12-04T12:28:25.595Z,4.91
2022-12-04T12:31:30.131Z,5.44
2022-12-04T12:34:34.316Z,5.16
2022-12-04T12:37:49.515Z,5.09
2022-12-04T12:40:48.852Z,5.11
2022-12-04T12:43:32.041Z,5.10
2022-12-04T12:46:24.177Z,5.26
2022-12-04T12:49:21.615Z,5.28
2022-12-04T12:52:17.490Z,5.28
2022-12-04T12:54:56.053Z,5.24
2022-12-04T12:57:39.600Z,5.21
2022-12-04T13:00:23.191Z,5.14
2022-12-04T13:03:30.220Z,5.07
2022-12-04T13:06:13.630Z,5.06
2022-12-04T13:09:05.674Z,5.07
2022-12-04T13:11:39.115Z,5.15
2022-12-04T13:14:14.150Z,5.12
2022-12-04T13:17:21.183Z,5.05
2022-12-04T13:19:58.153Z,5.02
2022-12-04T13:22:51.025Z,5.03
2022-12-04T13:25:57.220Z,5.02
2022-12-04T13:28:55.953Z,5.04
2022-12-04T13:31:55.325Z,5.14
2022-12-04T13:35:21.091Z,5.08
2022-12-04T13:38:27.118Z,5.06
2022-12-04T13:41:10.907Z,5.06
2022-12-04T13:43:42.765Z,5.12
2022-12-04T13:46:36.904Z,5.16
2022-12-04T13:49:17.824Z,5.14
2022-12-04T13:51:50.041Z,5.11
2022-12-04T13:54:37.492Z,5.09
2022-12-04T13:57:15.525Z,5.16
2022-12-04T13:59:49.060Z,5.17
2022-12-04T14:02:35.234Z,5.19
2022-12-04T14:05:11.372Z,5.23
2022-12-04T14:08:06.971Z,5.20
2022-12-04T14:10:39.744Z,5.18
2022-12-04T14:13:25.859Z,5.15
2022-12-04T14:16:16.479Z,5.18
2022-12-04T14:19:01.942Z,5.15
2022-12-04T14:21:47.454Z,5.13
2022-12-04T14:24:37.579Z,5.15
2022-12-04T14:27:36.375Z,5.02
2022-12-04T14:30:32.482Z,5.17
2022-12-04T14:33:21.832Z,5.09
2022-12-04T14:36:07.072Z,5.17
2022-12-04T14:38:39.805Z,5.19
2022-12-04T14:41:11.801Z,5.24
2022-12-04T14:43:45.544Z,5.22
2022-12-04T14:46:43.857Z,5.21
2022-12-04T14:49:37.098Z,5.16
2022-12-04T14:52:26.795Z,5.16
2022-12-04T14:55:20.407Z,5.14
2022-12-04T14:58:21.420Z,5.14
2022-12-04T15:00:55.551Z,5.20
2022-12-04T15:03:31.262Z,5.25
2022-12-04T15:06:17.859Z,5.33
2022-12-04T15:09:17.353Z,5.36
2022-12-04T15:12:17.259Z,5.34
2022-12-04T15:14:50.424Z,5.38
2022-12-04T15:17:22.378Z,5.37
2022-12-04T15:19:54.257Z,5.40
2022-12-04T15:22:28.729Z,5.81
2022-12-04T15:25:01.248Z,5.51
2022-12-04T15:27:35.333Z,5.44
2022-12-04T15:30:19.811Z,5.51
2022-12-04T15:32:53.668Z,5.51
2022-12-04T15:35:34.147Z,5.34
2022-12-04T15:38:06.123Z,5.43
2022-12-04T15:40:38.069Z,5.16
2022-12-04T15:43:22.289Z,5.40
2022-12-04T15:45:55.014Z,5.43
2022-12-04T15:48:31.384Z,5.48
2022-12-04T15:51:08.103Z,5.46
2022-12-04T15:53:44.785Z,5.50
2022-12-04T15:56:21.308Z,5.55
2022-12-04T15:59:01.642Z,5.57
2022-12-04T16:01:40.759Z,5.60
2022-12-04T16:04:28.236Z,5.59
2022-12-04T16:07:00.254Z,5.53
2022-12-04T16:09:32.479Z,5.49
2022-12-04T16:12:19.812Z,5.38
2022-12-04T16:14:56.490Z,5.49
2022-12-04T16:17:32.142Z,5.51
2022-12-04T16:20:06.200Z,5.52
2022-12-04T16:22:41.348Z,5.55
2022-12-04T16:25:13.728Z,5.50
2022-12-04T16:27:45.696Z,5.37
2022-12-04T16:30:17.822Z,5.40
2022-12-04T16:32:49.756Z,5.37
2022-12-04T16:35:21.914Z,5.46
2022-12-04T16:37:53.872Z,5.47
2022-12-04T16:40:25.897Z,5.48
2022-12-04T16:42:57.824Z,5.48
2022-12-04T16:45:33.832Z,5.47
2022-12-04T16:48:05.917Z,5.48
2022-12-04T16:50:37.840Z,5.52
2022-12-04T16:53:20.007Z,5.52
2022-12-04T16:55:53.246Z,5.38
2022-12-04T16:58:25.234Z,5.52
2022-12-04T17:00:57.415Z,5.54
2022-12-04T17:03:34.345Z,5.47
2022-12-04T17:06:06.413Z,5.50
2022-12-04T17:08:38.347Z,5.53
2022-12-04T17:11:16.424Z,5.56
2022-12-04T17:13:48.366Z,5.55
2022-12-04T17:16:20.410Z,5.58
2022-12-04T17:18:52.703Z,5.57
2022-12-04T17:21:24.796Z,5.55
2022-12-04T17:23:56.922Z,5.59
2022-12-04T17:26:28.891Z,5.63
2022-12-04T17:29:00.909Z,5.66
2022-12-04T17:31:33.108Z,5.63
2022-12-04T17:34:05.038Z,5.63
2022-12-04T17:36:37.031Z,5.58
2022-12-04T17:39:11.596Z,5.56
2022-12-04T17:41:43.551Z,5.52
2022-12-04T17:44:15.538Z,5.59
2022-12-04T17:46:47.764Z,5.65
2022-12-04T17:49:19.828Z,5.63
2022-12-04T17:51:51.772Z,5.66
2022-12-04T17:54:23.974Z,5.67
2022-12-04T17:56:58.018Z,5.65
2022-12-04T17:59:30.168Z,5.62
2022-12-04T18:02:02.194Z,5.69
2022-12-04T18:04:34.158Z,5.73
2022-12-04T18:07:06.450Z,5.68
2022-12-04T18:09:39.725Z,5.74
2022-12-04T18:12:12.311Z,5.56
2022-12-04T18:14:44.212Z,5.74
2022-12-04T18:17:17.657Z,5.75
2022-12-04T18:19:49.608Z,5.75
2022-12-04T18:22:21.653Z,5.75
2022-12-04T18:24:54.587Z,5.75
2022-12-04T18:27:26.492Z,5.75
2022-12-04T18:30:00.750Z,5.79
2022-12-04T18:32:32.695Z,5.81
2022-12-04T18:35:05.112Z,5.79
2022-12-04T18:37:37.421Z,5.78
2022-12-04T18:40:09.929Z,5.78
2022-12-04T18:42:41.973Z,5.80
2022-12-04T18:45:13.996Z,5.82
2022-12-04T18:47:47.430Z,5.87
2022-12-04T18:50:19.343Z,5.85
2022-12-04T18:52:56.982Z,5.81
2022-12-04T18:55:36.546Z,5.78
2022-12-04T18:58:08.429Z,5.83
2022-12-04T19:00:40.411Z,5.84
2022-12-04T19:03:12.497Z,5.87
2022-12-04T19:05:51.587Z,5.87
2022-12-04T19:08:26.259Z,5.84
2022-12-04T19:11:13.408Z,5.81
2022-12-04T19:13:45.398Z,5.81
2022-12-04T19:16:18.984Z,5.83
2022-12-04T19:18:52.389Z,5.89
2022-12-04T19:21:25.585Z,5.91
2022-12-04T19:24:00.861Z,5.93
2022-12-04T19:26:34.522Z,5.88
2022-12-04T19:29:07.927Z,5.88
2022-12-04T19:31:40.081Z,5.87
2022-12-04T19:34:12.062Z,5.85
2022-12-04T19:36:45.373Z,5.84
2022-12-04T19:39:17.298Z,5.89
2022-12-04T19:41:49.800Z,5.87
2022-12-04T19:47:14.570Z,5.74
2022-12-04T19:49:46.734Z,5.78
2022-12-04T19:52:18.794Z,5.81
2022-12-04T19:54:50.764Z,5.83
2022-12-04T19:57:22.736Z,5.81
2022-12-04T19:59:54.652Z,5.89
2022-12-04T20:02:26.713Z,5.92
2022-12-04T20:04:58.742Z,5.96
2022-12-04T20:07:30.724Z,5.94
2022-12-04T20:10:02.721Z,5.87
2022-12-04T20:12:34.658Z,5.95
2022-12-04T20:15:06.981Z,5.92
2022-12-04T20:17:38.997Z,5.92
2022-12-04T20:20:11.169Z,5.93
2022-12-04T20:22:43.114Z,5.93
2022-12-04T20:25:15.106Z,5.92
2022-12-04T20:27:47.145Z,5.82
2022-12-04T20:30:19.206Z,5.88
2022-12-04T20:32:51.133Z,5.93
2022-12-04T20:35:23.048Z,5.75
2022-12-04T20:37:55.026Z,5.89
2022-12-04T20:40:26.983Z,5.84
2022-12-04T20:42:58.912Z,5.94
2022-12-04T20:45:31.309Z,5.92
2022-12-04T20:48:03.590Z,5.97
2022-12-04T20:50:35.561Z,5.94
2022-12-04T20:53:07.522Z,6.00
2022-12-04T20:55:39.460Z,6.01
2022-12-04T20:58:11.432Z,6.05
2022-12-04T21:00:43.316Z,6.04
2022-12-04T21:03:16.017Z,6.02
2022-12-04T21:05:50.004Z,6.03
2022-12-04T21:08:41.966Z,6.04
2022-12-04T21:11:14.151Z,6.06
2022-12-04T21:14:04.517Z,6.07
2022-12-04T21:16:36.931Z,6.06
2022-12-04T21:19:12.368Z,6.04
2022-12-04T21:21:45.239Z,5.97
2022-12-04T21:24:20.124Z,6.00
2022-12-04T21:26:53.355Z,5.97
2022-12-04T21:29:25.370Z,5.92
2022-12-04T21:31:57.358Z,6.03
2022-12-04T21:34:29.288Z,6.00
2022-12-04T21:37:01.504Z,5.83
2022-12-04T21:39:33.532Z,6.00
2022-12-04T21:42:24.293Z,6.00
2022-12-04T21:44:57.757Z,5.93
2022-12-04T21:47:30.590Z,5.99
2022-12-04T21:50:03.140Z,6.01
2022-12-04T21:52:35.076Z,6.04
2022-12-04T21:55:07.444Z,6.09
2022-12-04T21:57:39.453Z,6.09
2022-12-04T22:00:12.397Z,6.06
2022-12-04T22:02:44.387Z,6.07
2022-12-04T22:05:16.552Z,6.06
2022-12-04T22:07:48.495Z,6.04
2022-12-04T22:10:20.455Z,6.07
2022-12-04T22:12:52.433Z,6.09
2022-12-04T22:15:24.395Z,5.95
2022-12-04T22:17:56.437Z,6.10
2022-12-04T22:20:28.428Z,6.07
2022-12-04T22:23:00.912Z,6.08
2022-12-04T22:25:33.518Z,6.07
2022-12-04T22:28:05.626Z,6.06
2022-12-04T22:30:37.595Z,6.05
2022-12-04T22:33:09.903Z,6.04
2022-12-04T22:35:41.945Z,6.09
2022-12-04T22:38:13.892Z,6.10
2022-12-04T22:40:45.880Z,6.10
2022-12-04T22:43:17.815Z,6.15
2022-12-04T22:45:49.723Z,6.17
2022-12-04T22:48:22.025Z,6.17
2022-12-04T22:51:15.901Z,6.16
2022-12-04T22:53:52.477Z,6.13
2022-12-04T22:56:28.133Z,6.18
2022-12-04T22:59:01.119Z,6.17
2022-12-04T23:01:34.532Z,6.20
2022-12-04T23:04:06.513Z,6.19
2022-12-04T23:06:38.942Z,6.17
2022-12-04T23:09:17.453Z,6.18
2022-12-04T23:11:55.100Z,6.19
2022-12-04T23:14:28.963Z,6.16
2022-12-04T23:17:01.157Z,6.21
2022-12-04T23:19:33.312Z,6.14
2022-12-04T23:22:05.200Z,6.19
2022-12-04T23:24:38.576Z,6.20
2022-12-04T23:27:10.464Z,6.15
2022-12-04T23:29:53.187Z,6.20
2022-12-04T23:32:25.742Z,6.26
2022-12-04T23:34:57.655Z,6.26
2022-12-04T23:37:29.580Z,6.22
2022-12-04T23:40:01.656Z,6.25
2022-12-04T23:42:34.116Z,6.27
2022-12-04T23:45:07.902Z,6.21
2022-12-04T23:47:39.827Z,6.22
2022-12-04T23:50:11.851Z,6.24
2022-12-04T23:52:43.718Z,6.25
2022-12-04T23:55:15.959Z,6.20
2022-12-04T23:57:47.915Z,6.23
